Time;durP1;ratioP1;P1;durP2;ratioP2;P2;SDS_P1;SDS_P2;PMS_P1;PMS_P2;Temp;Humidity;BMP_temperature;BMP_pressure;BME280_temperature;BME280_humidity;BME280_pressure;Samples;Min_cycle;Max_cycle;Signal;HPM_P1;HPM_P2
2024/03/15 00:00:22;;;;;;;10.10;2.28;;;12.50;99.90;;;;;;6220227;28;20049;-85
2024/03/15 00:03:24;;;;;;;8.20;2.17;;;12.50;99.90;;;;;;6232574;28;20065;-85
2024/03/15 00:06:26;;;;;;;8.27;2.00;;;12.50;99.90;;;;;;6210355;28;20082;-87
2024/03/15 00:09:28;;;;;;;8.85;2.10;;;12.50;99.90;;;;;;6233840;28;20066;-86
2024/03/15 00:12:32;;;;;;;9.27;2.08;;;12.50;99.90;;;;;;6226078;28;20096;-86
2024/03/15 00:15:33;;;;;;;11.68;2.40;;;12.50;99.90;;;;;;6240056;28;20523;-84
2024/03/15 00:18:36;;;;;;;10.40;2.33;;;12.50;99.90;;;;;;6207477;28;20087;-84
2024/03/15 00:21:38;;;;;;;9.55;2.63;;;12.50;99.90;;;;;;6231381;28;20053;-85
2024/03/15 00:24:39;;;;;;;12.73;2.40;;;12.50;99.90;;;;;;6207604;28;20532;-85
2024/03/15 00:27:41;;;;;;;9.35;2.22;;;12.50;99.90;;;;;;6248609;28;20112;-86
2024/03/15 00:30:43;;;;;;;9.98;2.30;;;12.50;99.90;;;;;;6231447;28;20068;-86
2024/03/15 00:33:47;;;;;;;11.40;2.40;;;12.50;99.90;;;;;;6224805;28;20072;-85
2024/03/15 00:36:49;;;;;;;12.80;2.70;;;12.50;99.90;;;;;;6230882;28;20060;-85
2024/03/15 00:39:51;;;;;;;10.55;2.47;;;12.50;99.90;;;;;;6247103;28;20101;-84
2024/03/15 00:42:53;;;;;;;10.75;2.30;;;12.50;99.90;;;;;;6222632;28;20683;-84
2024/03/15 00:45:56;;;;;;;9.88;2.15;;;12.50;99.90;;;;;;6235156;28;20045;-85
2024/03/15 00:48:57;;;;;;;15.38;2.60;;;12.50;99.90;;;;;;6206111;28;20053;-85
2024/03/15 00:52:00;;;;;;;10.07;2.42;;;12.50;99.90;;;;;;6207082;28;20054;-86
2024/03/15 00:55:02;;;;;;;10.55;2.50;;;12.50;99.90;;;;;;6229977;28;20057;-86
2024/03/15 00:58:06;;;;;;;10.38;2.65;;;12.50;99.90;;;;;;6247095;28;20053;-86
2024/03/15 01:01:10;;;;;;;12.18;2.78;;;12.40;99.90;;;;;;6216818;28;20131;-87
2024/03/15 01:04:13;;;;;;;8.43;2.47;;;12.40;99.90;;;;;;6211939;28;20049;-86
2024/03/15 01:07:15;;;;;;;11.80;2.65;;;12.40;99.90;;;;;;6249626;28;20739;-86
2024/03/15 01:10:16;;;;;;;11.35;2.75;;;12.40;99.90;;;;;;6226143;28;20061;-87
2024/03/15 01:13:18;;;;;;;12.20;3.15;;;12.40;99.90;;;;;;6229876;28;20479;-87
2024/03/15 01:16:20;;;;;;;10.25;2.50;;;12.40;99.90;;;;;;6224354;28;20187;-84
2024/03/15 01:19:22;;;;;;;12.13;2.60;;;12.40;99.90;;;;;;6248932;28;20041;-86
2024/03/15 01:22:23;;;;;;;13.82;2.63;;;12.40;99.90;;;;;;6256681;28;20121;-84
2024/03/15 01:25:26;;;;;;;11.40;2.83;;;12.40;99.90;;;;;;6249034;28;20033;-85
2024/03/15 01:28:29;;;;;;;14.55;2.67;;;12.40;99.90;;;;;;6251917;28;20100;-79
2024/03/15 01:31:33;;;;;;;14.82;2.90;;;12.40;99.90;;;;;;6257722;28;20485;-86
2024/03/15 01:34:35;;;;;;;11.82;2.50;;;12.50;99.90;;;;;;6237895;28;20525;-86
2024/03/15 01:37:38;;;;;;;15.73;2.58;;;12.40;99.90;;;;;;6234607;28;20412;-85
2024/03/15 01:40:41;;;;;;;14.27;3.03;;;12.40;99.90;;;;;;6251271;28;20073;-84
2024/03/15 01:43:43;;;;;;;13.18;2.80;;;12.40;99.90;;;;;;6222119;28;20128;-86
2024/03/15 01:46:45;;;;;;;13.02;2.88;;;12.40;99.90;;;;;;6250206;28;20042;-86
2024/03/15 01:49:46;;;;;;;14.93;2.80;;;12.40;99.90;;;;;;6249470;28;20068;-85
2024/03/15 01:52:49;;;;;;;13.45;2.40;;;12.40;99.90;;;;;;6225997;28;20841;-86
2024/03/15 01:55:52;;;;;;;14.27;3.40;;;12.40;99.90;;;;;;6231495;28;20057;-86
2024/03/15 01:58:54;;;;;;;10.10;2.35;;;12.40;99.90;;;;;;6227064;28;20060;-85
2024/03/15 02:01:57;;;;;;;15.65;3.00;;;12.40;99.90;;;;;;6223047;28;20085;-84
2024/03/15 02:04:59;;;;;;;12.27;2.60;;;12.30;99.90;;;;;;6231076;28;20052;-85
2024/03/15 02:08:00;;;;;;;12.35;3.05;;;12.30;99.90;;;;;;6245872;28;20053;-84
2024/03/15 02:11:02;;;;;;;13.23;2.42;;;12.30;99.90;;;;;;6224782;28;20113;-85
2024/03/15 02:14:04;;;;;;;14.82;3.05;;;12.30;99.90;;;;;;6228067;28;20637;-84
2024/03/15 02:17:06;;;;;;;9.52;2.17;;;12.30;99.90;;;;;;6248085;28;20057;-85
2024/03/15 02:20:11;;;;;;;11.27;2.40;;;12.40;99.90;;;;;;6230124;28;20060;-86
2024/03/15 02:23:15;;;;;;;18.48;2.65;;;12.30;99.90;;;;;;6246306;28;20060;-84
2024/03/15 02:26:17;;;;;;;9.55;2.20;;;12.30;99.90;;;;;;6248415;28;20176;-86
2024/03/15 02:29:19;;;;;;;12.98;3.22;;;12.20;99.90;;;;;;6220376;28;20529;-83
2024/03/15 02:32:22;;;;;;;12.73;2.47;;;12.10;99.90;;;;;;6204873;28;20050;-83
2024/03/15 02:35:24;;;;;;;13.98;2.90;;;12.10;99.90;;;;;;6247139;28;20060;-84
2024/03/15 02:38:33;;;;;;;13.85;3.05;;;12.00;99.90;;;;;;6227675;28;20046;-84
2024/03/15 02:41:35;;;;;;;13.77;2.70;;;12.00;99.90;;;;;;6249211;28;20050;-87
2024/03/15 02:44:37;;;;;;;13.23;2.72;;;12.00;99.90;;;;;;6220086;28;20718;-84
2024/03/15 02:47:39;;;;;;;16.13;3.05;;;12.10;99.90;;;;;;6241742;28;20053;-86
2024/03/15 02:50:40;;;;;;;18.75;3.35;;;12.10;99.90;;;;;;6229717;28;20049;-82
2024/03/15 02:53:43;;;;;;;15.45;3.00;;;12.10;99.90;;;;;;6246879;28;20642;-83
2024/03/15 02:56:45;;;;;;;11.63;3.00;;;12.10;99.90;;;;;;6229458;28;20473;-85
2024/03/15 02:59:47;;;;;;;16.95;3.50;;;12.20;99.90;;;;;;6216390;28;20057;-84
2024/03/15 03:02:49;;;;;;;14.45;3.20;;;12.20;99.90;;;;;;6229434;28;20056;-84
2024/03/15 03:05:52;;;;;;;19.20;3.42;;;12.10;99.90;;;;;;6222099;28;20056;-83
2024/03/15 03:08:54;;;;;;;16.65;3.85;;;12.10;99.90;;;;;;6244886;28;20064;-83
2024/03/15 03:11:56;;;;;;;22.40;3.80;;;12.00;99.90;;;;;;6222669;28;20402;-83
2024/03/15 03:14:58;;;;;;;19.25;3.30;;;11.90;99.90;;;;;;6237064;28;20060;-85
2024/03/15 03:18:00;;;;;;;20.08;3.83;;;11.90;99.90;;;;;;6228361;28;20061;-84
2024/03/15 03:21:01;;;;;;;18.38;3.60;;;11.90;99.90;;;;;;6245408;28;20055;-84
2024/03/15 03:24:03;;;;;;;17.17;3.00;;;11.90;99.90;;;;;;6227671;28;20049;-86
2024/03/15 03:27:05;;;;;;;20.88;3.40;;;11.90;99.90;;;;;;6247852;28;20045;-86
2024/03/15 03:30:07;;;;;;;14.93;3.35;;;11.90;99.90;;;;;;6205470;28;20065;-84
2024/03/15 03:33:09;;;;;;;14.35;3.33;;;11.80;99.90;;;;;;6250625;28;20504;-85
2024/03/15 03:36:11;;;;;;;14.52;2.63;;;11.90;99.90;;;;;;6251361;28;20052;-84
2024/03/15 03:39:13;;;;;;;11.75;2.78;;;11.80;99.90;;;;;;6248989;28;20060;-84
2024/03/15 03:42:15;;;;;;;16.05;2.80;;;11.70;99.90;;;;;;6210178;28;20042;-83
2024/03/15 03:45:18;;;;;;;17.02;3.05;;;11.60;99.90;;;;;;6240309;28;20064;-85
2024/03/15 03:48:20;;;;;;;18.52;2.88;;;11.60;99.90;;;;;;6241240;28;20560;-84
2024/03/15 03:51:21;;;;;;;22.67;3.30;;;11.60;99.90;;;;;;6233328;28;20107;-85
2024/03/15 03:54:24;;;;;;;21.10;2.90;;;11.60;99.90;;;;;;6230092;28;20057;-83
2024/03/15 03:57:28;;;;;;;17.60;3.03;;;11.50;99.90;;;;;;6249662;28;20049;-86
2024/03/15 04:00:45;;;;;;;13.05;2.95;;;11.60;99.90;;;;;;6208934;28;20185;-84
2024/03/15 04:03:48;;;;;;;17.05;3.05;;;11.60;99.90;;;;;;6249853;28;20055;-84
2024/03/15 04:06:51;;;;;;;23.52;3.33;;;11.60;99.90;;;;;;6207821;28;20058;-84
2024/03/15 04:09:53;;;;;;;18.17;2.83;;;11.60;99.90;;;;;;6248947;28;20057;-86
2024/03/15 04:12:56;;;;;;;16.38;3.17;;;11.70;99.90;;;;;;6224960;28;20046;-86
2024/03/15 04:15:58;;;;;;;16.38;3.05;;;11.70;99.90;;;;;;6233671;28;20049;-86
2024/03/15 04:18:59;;;;;;;18.70;3.42;;;11.70;99.90;;;;;;6227051;28;20054;-84
2024/03/15 04:22:03;;;;;;;16.25;3.20;;;11.80;99.90;;;;;;6249451;28;20195;-86
2024/03/15 04:25:05;;;;;;;18.15;2.80;;;11.80;99.90;;;;;;6247374;28;20053;-83
2024/03/15 04:28:08;;;;;;;17.80;2.85;;;11.80;99.90;;;;;;6248708;28;20062;-85
2024/03/15 04:31:10;;;;;;;24.67;3.33;;;11.80;99.90;;;;;;6221844;28;20057;-85
2024/03/15 04:34:11;;;;;;;19.88;3.75;;;11.80;99.90;;;;;;6223514;28;20053;-84
2024/03/15 04:37:15;;;;;;;19.40;3.20;;;11.80;99.90;;;;;;6248373;28;20045;-84
2024/03/15 04:40:16;;;;;;;18.15;3.05;;;11.80;99.90;;;;;;6247138;28;20061;-84
2024/03/15 04:43:19;;;;;;;24.05;3.38;;;11.80;99.90;;;;;;6243725;28;20050;-85
2024/03/15 04:46:21;;;;;;;18.98;3.42;;;11.80;99.90;;;;;;6214854;28;20065;-84
2024/03/15 04:49:22;;;;;;;20.98;3.25;;;11.70;99.90;;;;;;6248241;28;20053;-85
2024/03/15 04:52:24;;;;;;;20.10;3.55;;;11.60;99.90;;;;;;6232856;28;20054;-84
2024/03/15 04:55:26;;;;;;;21.48;3.15;;;11.60;99.90;;;;;;6248737;28;20500;-85
2024/03/15 04:58:33;;;;;;;24.58;3.65;;;11.60;99.90;;;;;;6226188;28;20046;-78
2024/03/15 05:01:35;;;;;;;27.42;3.45;;;11.60;99.90;;;;;;6231483;28;20152;-83
2024/03/15 05:04:39;;;;;;;21.70;3.83;;;11.70;99.90;;;;;;6224477;28;20049;-84
2024/03/15 05:07:41;;;;;;;20.77;3.30;;;11.70;99.90;;;;;;6230791;28;20049;-84
2024/03/15 05:10:42;;;;;;;21.30;3.67;;;11.70;99.90;;;;;;6223961;28;20413;-82
2024/03/15 05:13:44;;;;;;;22.85;3.30;;;11.70;99.90;;;;;;6230203;28;20123;-83
2024/03/15 05:16:46;;;;;;;19.90;3.20;;;11.70;99.90;;;;;;6222708;28;20126;-84
2024/03/15 05:19:48;;;;;;;23.13;4.07;;;11.80;99.90;;;;;;6222056;28;20060;-84
2024/03/15 05:22:49;;;;;;;17.85;2.88;;;11.80;99.90;;;;;;6205828;28;20054;-84
2024/03/15 05:25:51;;;;;;;14.10;2.85;;;11.80;99.90;;;;;;6247920;28;20053;-84
2024/03/15 05:28:53;;;;;;;15.38;2.83;;;11.80;99.90;;;;;;6215410;28;20072;-85
2024/03/15 05:31:54;;;;;;;14.95;2.50;;;11.80;99.90;;;;;;6224224;28;20050;-84
2024/03/15 05:34:56;;;;;;;14.52;3.13;;;11.70;99.90;;;;;;6246614;28;20045;-85
2024/03/15 05:37:58;;;;;;;15.75;2.88;;;11.80;99.90;;;;;;6229782;28;20057;-86
2024/03/15 05:41:00;;;;;;;15.90;3.28;;;11.80;99.90;;;;;;6231523;28;20057;-85
2024/03/15 05:44:04;;;;;;;15.82;2.95;;;11.80;99.90;;;;;;6224992;28;20053;-85
2024/03/15 05:47:06;;;;;;;16.30;2.90;;;11.80;99.90;;;;;;6231333;28;20409;-86
2024/03/15 05:50:11;;;;;;;14.75;3.05;;;11.80;99.90;;;;;;6231189;28;20444;-86
2024/03/15 05:53:12;;;;;;;16.85;3.13;;;11.70;99.90;;;;;;6228350;28;20090;-85
2024/03/15 05:56:18;;;;;;;18.38;3.38;;;11.70;99.90;;;;;;6231748;28;20080;-85
2024/03/15 05:59:20;;;;;;;11.35;2.40;;;11.80;99.90;;;;;;6234990;28;20066;-85
2024/03/15 06:02:22;;;;;;;13.13;2.35;;;11.80;99.90;;;;;;6230703;28;20060;-85
2024/03/15 06:05:24;;;;;;;16.45;2.85;;;11.80;99.90;;;;;;6237924;28;20046;-83
2024/03/15 06:08:26;;;;;;;13.07;2.75;;;11.70;99.90;;;;;;6244364;28;20045;-84
2024/03/15 06:11:28;;;;;;;18.13;3.00;;;11.60;99.90;;;;;;6245278;28;20048;-84
2024/03/15 06:14:30;;;;;;;16.83;3.17;;;11.70;99.90;;;;;;6234058;28;20060;-82
2024/03/15 06:17:36;;;;;;;15.90;3.35;;;11.70;99.90;;;;;;6232641;28;20045;-84
2024/03/15 06:20:38;;;;;;;14.20;2.85;;;11.70;99.90;;;;;;6227060;28;20072;-84
2024/03/15 06:23:40;;;;;;;21.33;2.97;;;11.80;99.90;;;;;;6216470;28;20053;-84
2024/03/15 06:26:42;;;;;;;14.45;2.72;;;11.80;99.90;;;;;;6220561;28;20041;-84
2024/03/15 06:29:49;;;;;;;18.80;3.03;;;11.90;99.90;;;;;;6228066;28;20049;-85
2024/03/15 06:32:51;;;;;;;16.08;2.88;;;12.00;99.90;;;;;;6237155;28;20484;-88
2024/03/15 06:35:55;;;;;;;14.45;2.95;;;12.00;99.90;;;;;;6227657;28;20203;-86
2024/03/15 06:39:08;;;;;;;12.73;2.72;;;12.00;99.90;;;;;;6246110;28;20050;-90
2024/03/15 06:48:58;;;;;;;15.32;3.00;;;12.20;99.90;;;;;;6220409;28;20058;-86
2024/03/15 06:55:20;;;;;;;17.05;3.00;;;12.20;99.90;;;;;;6219905;28;20070;-86
2024/03/15 06:58:22;;;;;;;19.92;3.13;;;12.20;99.90;;;;;;6228260;28;20053;-87
2024/03/15 07:01:27;;;;;;;20.83;3.67;;;12.30;99.90;;;;;;6219985;28;20151;-86
2024/03/15 07:04:29;;;;;;;19.73;3.13;;;12.30;99.90;;;;;;6244360;28;20088;-86
2024/03/15 07:07:32;;;;;;;12.95;2.85;;;12.20;99.90;;;;;;6225009;28;20061;-84
2024/03/15 07:10:34;;;;;;;11.98;2.28;;;12.10;99.90;;;;;;6247038;28;20053;-86
2024/03/15 07:13:36;;;;;;;12.35;2.20;;;12.10;99.90;;;;;;6203822;28;20590;-86
2024/03/15 07:16:38;;;;;;;9.82;2.05;;;12.10;99.90;;;;;;6249097;28;20057;-86
2024/03/15 07:19:41;;;;;;;11.13;2.03;;;12.10;99.90;;;;;;6207877;28;20058;-86
2024/03/15 07:22:43;;;;;;;7.00;1.45;;;12.20;99.90;;;;;;6249680;28;20061;-88
2024/03/15 07:25:46;;;;;;;9.13;1.58;;;12.20;99.90;;;;;;6225691;28;20136;-86
2024/03/15 07:28:47;;;;;;;7.72;1.50;;;12.30;99.90;;;;;;6217939;28;20053;-88
2024/03/15 07:31:49;;;;;;;7.43;1.60;;;12.30;99.90;;;;;;6226372;28;20076;-89
2024/03/15 07:34:51;;;;;;;6.65;1.65;;;12.40;99.90;;;;;;6249730;28;20065;-87
2024/03/15 07:37:53;;;;;;;6.60;1.33;;;12.40;99.90;;;;;;6225068;28;20054;-89
2024/03/15 07:40:55;;;;;;;8.02;1.58;;;12.40;99.90;;;;;;6232017;28;20056;-85
2024/03/15 07:43:57;;;;;;;8.45;1.70;;;12.50;99.90;;;;;;6225564;28;20053;-86
2024/03/15 07:46:59;;;;;;;11.30;1.80;;;12.60;99.90;;;;;;6225472;28;20249;-88
2024/03/15 07:50:00;;;;;;;10.80;1.95;;;12.70;99.90;;;;;;6231382;28;20140;-86
2024/03/15 07:53:03;;;;;;;9.23;2.33;;;12.90;99.90;;;;;;6207246;28;20398;-87
2024/03/15 07:56:09;;;;;;;12.90;2.20;;;12.80;99.90;;;;;;6230905;28;20468;-89
2024/03/15 07:59:12;;;;;;;16.80;2.55;;;13.00;99.90;;;;;;6208516;28;20049;-86
2024/03/15 08:02:14;;;;;;;20.65;2.85;;;13.10;99.90;;;;;;6227234;28;20104;-87
2024/03/15 08:05:16;;;;;;;16.55;3.03;;;13.10;99.90;;;;;;6248615;28;20064;-87
2024/03/15 08:08:19;;;;;;;17.15;3.25;;;13.10;99.90;;;;;;6227481;28;20049;-87
2024/03/15 08:11:21;;;;;;;15.77;3.10;;;13.20;99.90;;;;;;6248443;28;20547;-87
2024/03/15 08:14:31;;;;;;;17.05;3.53;;;13.30;99.90;;;;;;6219864;28;20136;-87
2024/03/15 08:17:33;;;;;;;18.27;3.38;;;13.30;99.90;;;;;;6230468;28;20109;-89
2024/03/15 08:20:34;;;;;;;16.23;3.45;;;13.60;99.90;;;;;;6248072;28;20556;-85
2024/03/15 08:23:37;;;;;;;17.50;3.65;;;13.60;99.90;;;;;;6221298;28;20053;-85
2024/03/15 08:26:39;;;;;;;18.08;3.65;;;13.60;99.90;;;;;;6230386;28;20045;-87
2024/03/15 08:29:41;;;;;;;19.75;3.63;;;13.50;99.90;;;;;;6219403;28;20511;-85
2024/03/15 08:32:43;;;;;;;22.73;3.78;;;13.60;99.90;;;;;;6225704;28;20062;-88
2024/03/15 08:35:45;;;;;;;24.52;3.67;;;13.80;99.90;;;;;;6246915;28;20045;-84
2024/03/15 08:38:48;;;;;;;20.40;3.97;;;13.90;99.90;;;;;;6222607;28;20084;-85
2024/03/15 08:41:50;;;;;;;17.30;3.67;;;14.00;98.20;;;;;;6246467;28;20049;-85
2024/03/15 08:44:53;;;;;;;16.92;2.83;;;14.10;99.60;;;;;;6207568;28;20140;-88
2024/03/15 08:47:55;;;;;;;20.13;3.25;;;14.30;98.60;;;;;;6229537;28;20054;-83
2024/03/15 08:51:06;;;;;;;24.10;2.97;;;14.80;95.80;;;;;;6222040;28;20050;-83
2024/03/15 08:54:08;;;;;;;14.95;2.17;;;15.10;91.50;;;;;;6217959;28;20104;-84
2024/03/15 08:57:13;;;;;;;13.73;2.33;;;15.20;88.30;;;;;;6228202;28;20099;-85
2024/03/15 09:00:14;;;;;;;19.15;3.40;;;15.60;76.20;;;;;;6218924;28;20046;-85
2024/03/15 09:03:16;;;;;;;14.07;2.45;;;15.40;68.90;;;;;;6232782;28;20553;-89
2024/03/15 09:06:19;;;;;;;17.55;3.20;;;15.20;76.40;;;;;;6229861;28;20195;-84
2024/03/15 09:09:31;;;;;;;18.17;3.30;;;14.90;79.50;;;;;;6218125;28;20060;-88
2024/03/15 09:12:35;;;;;;;23.35;2.80;;;14.80;90.70;;;;;;6211887;28;20049;-90
2024/03/15 09:15:38;;;;;;;24.15;3.97;;;14.60;90.70;;;;;;6235998;28;20053;-89
2024/03/15 09:18:41;;;;;;;16.75;2.70;;;14.50;92.00;;;;;;6232401;28;20409;-91
2024/03/15 09:21:44;;;;;;;21.95;3.05;;;14.60;90.90;;;;;;6214149;28;20412;-85
2024/03/15 09:24:46;;;;;;;21.95;3.22;;;14.50;91.40;;;;;;6248190;28;20515;-88
2024/03/15 09:27:48;;;;;;;15.52;2.75;;;14.40;94.40;;;;;;6223435;28;20061;-86
2024/03/15 09:30:54;;;;;;;24.35;2.90;;;14.70;93.60;;;;;;6223744;28;20053;-85
2024/03/15 09:34:13;;;;;;;13.82;3.15;;;14.80;92.70;;;;;;6222105;28;20057;-87
2024/03/15 09:37:19;;;;;;;15.15;2.72;;;15.00;93.50;;;;;;6229941;28;20125;-87
2024/03/15 09:40:28;;;;;;;12.55;2.55;;;15.70;88.20;;;;;;6224409;28;20061;-87
2024/03/15 09:43:29;;;;;;;13.82;2.55;;;16.50;68.80;;;;;;6228976;28;20627;-88
2024/03/15 09:46:32;;;;;;;14.98;2.90;;;16.70;52.30;;;;;;6228921;28;20076;-87
2024/03/15 09:49:33;;;;;;;13.95;3.10;;;16.50;50.70;;;;;;6231557;28;20481;-84
2024/03/15 09:52:35;;;;;;;17.85;2.33;;;16.90;29.90;;;;;;6245236;28;20492;-90
2024/03/15 09:55:37;;;;;;;15.82;2.28;;;17.10;29.40;;;;;;6232924;28;20154;-83
2024/03/15 09:58:38;;;;;;;15.45;2.20;;;16.90;14.20;;;;;;6224772;28;20109;-85
2024/03/15 10:01:40;;;;;;;13.63;2.33;;;16.40;17.20;;;;;;6261877;28;20513;-85
2024/03/15 10:04:44;;;;;;;14.90;2.40;;;16.40;20.00;;;;;;6226932;28;20132;-85
2024/03/15 10:07:46;;;;;;;14.40;2.42;;;16.20;31.50;;;;;;6247507;28;20064;-85
2024/03/15 10:10:47;;;;;;;15.68;2.75;;;15.90;38.10;;;;;;6224561;28;20053;-86
2024/03/15 10:13:49;;;;;;;19.33;2.90;;;15.50;63.50;;;;;;6225568;28;20402;-86
2024/03/15 10:16:52;;;;;;;19.10;3.75;;;14.90;97.30;;;;;;6223921;28;20176;-92
2024/03/15 10:19:54;;;;;;;19.95;3.97;;;14.50;99.90;;;;;;6230570;28;20057;-91
2024/03/15 10:22:58;;;;;;;22.13;3.88;;;14.40;99.90;;;;;;6223100;28;20067;-87
2024/03/15 10:26:03;;;;;;;21.90;4.25;;;14.60;99.90;;;;;;6248578;28;20165;-88
2024/03/15 10:29:07;;;;;;;16.00;3.13;;;14.90;99.90;;;;;;6199328;28;20393;-91
2024/03/15 10:32:09;;;;;;;11.07;2.35;;;15.30;99.90;;;;;;6205334;28;20061;-92
2024/03/15 10:35:12;;;;;;;12.25;2.80;;;16.50;90.20;;;;;;6245752;28;20140;-91
2024/03/15 10:38:14;;;;;;;14.18;2.30;;;17.10;72.50;;;;;;6206805;28;20095;-89
2024/03/15 10:41:16;;;;;;;12.98;2.47;;;17.50;41.80;;;;;;6229235;28;20045;-83
2024/03/15 10:44:19;;;;;;;12.35;2.05;;;18.00;49.00;;;;;;6195220;28;20058;-83
2024/03/15 10:47:21;;;;;;;11.90;2.63;;;17.00;13.10;;;;;;6225776;28;20052;-88
2024/03/15 10:50:23;;;;;;;13.18;2.28;;;16.50;51.30;;;;;;6226741;28;20060;-87
2024/03/15 10:53:24;;;;;;;16.52;3.15;;;17.40;45.80;;;;;;6205328;28;20061;-86
2024/03/15 10:56:26;;;;;;;12.00;2.90;;;18.80;16.60;;;;;;6244339;28;20412;-86
2024/03/15 10:59:28;;;;;;;16.00;3.25;;;18.80;1.00;;;;;;6206871;28;20057;-83
2024/03/15 11:02:30;;;;;;;9.52;2.42;;;18.90;1.00;;;;;;6219750;28;20057;-85
2024/03/15 11:05:31;;;;;;;12.35;1.95;;;18.60;1.00;;;;;;6242475;28;20527;-84
2024/03/15 11:08:40;;;;;;;14.52;2.40;;;18.30;1.00;;;;;;6226196;28;20049;-84
2024/03/15 11:11:42;;;;;;;14.90;2.35;;;17.70;1.00;;;;;;6201754;28;20061;-84
2024/03/15 11:14:44;;;;;;;15.82;3.10;;;17.00;12.10;;;;;;6191400;28;20045;-83
2024/03/15 11:17:45;;;;;;;15.15;2.90;;;16.50;42.10;;;;;;6201024;28;20065;-83
2024/03/15 11:20:56;;;;;;;20.40;3.17;;;16.10;59.30;;;;;;6201035;28;20050;-83
2024/03/15 11:23:58;;;;;;;15.80;3.58;;;15.90;66.40;;;;;;6217853;28;20060;-83
2024/03/15 11:26:59;;;;;;;18.48;3.60;;;15.80;72.10;;;;;;6242014;28;20049;-83
2024/03/15 11:30:01;;;;;;;15.00;3.50;;;15.60;68.60;;;;;;6196625;28;20054;-85
2024/03/15 11:33:03;;;;;;;16.40;3.78;;;16.30;72.10;;;;;;6224268;28;20049;-85
2024/03/15 11:36:05;;;;;;;14.65;3.13;;;17.40;36.20;;;;;;6219144;28;20501;-83
2024/03/15 11:39:07;;;;;;;14.82;3.05;;;17.40;16.80;;;;;;6242043;28;20049;-82
2024/03/15 11:42:10;;;;;;;10.38;2.30;;;17.30;1.00;;;;;;6218457;28;20050;-83
2024/03/15 11:45:12;;;;;;;16.88;2.75;;;17.70;1.00;;;;;;6232631;28;20099;-84
2024/03/15 11:48:13;;;;;;;13.55;2.65;;;17.50;1.00;;;;;;6218693;28;20085;-84
2024/03/15 11:51:15;;;;;;;15.48;2.55;;;17.40;1.00;;;;;;6244107;28;20060;-82
2024/03/15 11:54:17;;;;;;;16.63;3.47;;;17.20;1.00;;;;;;6233221;28;20532;-83
2024/03/15 11:57:19;;;;;;;15.68;2.47;;;17.80;1.00;;;;;;6205919;28;20056;-83
2024/03/15 12:00:21;;;;;;;11.63;2.30;;;17.60;1.00;;;;;;6235991;28;20190;-84
2024/03/15 12:03:23;;;;;;;12.95;3.17;;;17.30;1.00;;;;;;6205524;28;20068;-82
2024/03/15 12:06:25;;;;;;;12.30;2.63;;;17.40;1.00;;;;;;6229079;28;20076;-83
2024/03/15 12:09:27;;;;;;;16.95;2.90;;;17.70;1.00;;;;;;6206833;28;20104;-86
2024/03/15 12:12:28;;;;;;;12.70;3.13;;;17.60;1.00;;;;;;6246978;28;20056;-84
2024/03/15 12:15:30;;;;;;;11.40;2.40;;;17.20;1.00;;;;;;6187597;28;20108;-84
2024/03/15 12:18:32;;;;;;;16.67;2.70;;;17.20;1.00;;;;;;6229015;28;20056;-83
2024/03/15 12:21:34;;;;;;;15.23;3.28;;;18.10;1.00;;;;;;6223849;28;20144;-83
2024/03/15 12:24:36;;;;;;;12.65;2.55;;;18.30;1.00;;;;;;6247671;28;20053;-83
2024/03/15 12:27:38;;;;;;;14.13;2.72;;;18.80;1.00;;;;;;6245966;23;20813;-83
2024/03/15 12:30:40;;;;;;;15.68;2.95;;;19.00;1.00;;;;;;6211593;28;20519;-83
2024/03/15 12:33:42;;;;;;;13.13;2.50;;;19.50;1.00;;;;;;6205567;28;20058;-83
2024/03/15 12:36:44;;;;;;;14.57;3.13;;;20.00;1.00;;;;;;6261755;28;20472;-82
2024/03/15 12:39:46;;;;;;;20.08;3.85;;;19.60;1.00;;;;;;6222872;28;20053;-83
2024/03/15 12:42:48;;;;;;;15.55;2.72;;;19.20;1.00;;;;;;6245907;28;20062;-82
2024/03/15 12:45:50;;;;;;;16.95;3.58;;;18.50;1.00;;;;;;6222479;28;20069;-81
2024/03/15 12:48:51;;;;;;;14.02;2.72;;;18.10;1.00;;;;;;6225414;28;21374;-86
2024/03/15 12:51:55;;;;;;;15.25;2.58;;;18.30;1.00;;;;;;6225706;28;20049;-82
2024/03/15 12:54:57;;;;;;;16.95;3.25;;;18.70;1.00;;;;;;6229919;28;20148;-86
2024/03/15 12:57:59;;;;;;;13.27;2.50;;;18.10;1.00;;;;;;6213504;28;20485;-85
2024/03/15 13:01:02;;;;;;;13.93;3.53;;;18.40;1.00;;;;;;6212099;28;20077;-82
2024/03/15 13:04:04;;;;;;;20.02;3.53;;;18.30;1.00;;;;;;6239535;28;20524;-84
2024/03/15 13:07:05;;;;;;;20.08;3.03;;;17.90;1.00;;;;;;6229204;28;20045;-85
2024/03/15 13:10:07;;;;;;;13.35;2.65;;;18.90;1.00;;;;;;6218610;28;20088;-82
2024/03/15 13:13:15;;;;;;;18.17;3.13;;;19.70;1.00;;;;;;6222050;28;20068;-82
2024/03/15 13:16:24;;;;;;;17.08;3.10;;;19.10;1.00;;;;;;6238680;28;20060;-80
2024/03/15 13:19:26;;;;;;;14.73;2.92;;;18.70;1.00;;;;;;6235527;28;20418;-80
2024/03/15 13:22:28;;;;;;;13.93;2.67;;;18.60;1.00;;;;;;6228375;28;20082;-82
2024/03/15 13:25:29;;;;;;;14.27;2.80;;;18.60;1.00;;;;;;6213627;28;20053;-79
2024/03/15 13:28:38;;;;;;;11.10;2.70;;;18.60;1.00;;;;;;6222585;28;20097;-79
2024/03/15 13:31:40;;;;;;;16.45;3.47;;;18.00;1.00;;;;;;6237448;28;20053;-79
2024/03/15 13:34:41;;;;;;;21.13;4.47;;;17.40;1.00;;;;;;6245031;28;20052;-80
2024/03/15 13:37:43;;;;;;;22.77;3.75;;;16.80;1.00;;;;;;6220357;28;20061;-82
2024/03/15 13:40:46;;;;;;;25.90;4.75;;;15.50;33.90;;;;;;6232461;28;20056;-80
2024/03/15 13:43:48;;;;;;;22.52;4.40;;;14.90;83.00;;;;;;6218174;28;20049;-81
2024/03/15 13:46:50;;;;;;;23.73;3.75;;;14.60;94.40;;;;;;6213488;28;20057;-81
2024/03/15 13:49:52;;;;;;;22.00;4.22;;;14.40;91.70;;;;;;6235625;28;20516;-80
2024/03/15 13:52:53;;;;;;;19.75;3.55;;;14.90;95.10;;;;;;6227100;28;20057;-81
2024/03/15 13:55:57;;;;;;;25.45;4.18;;;15.30;85.80;;;;;;6203493;28;20093;-80
2024/03/15 13:58:59;;;;;;;25.02;4.68;;;15.40;86.80;;;;;;6215921;28;20216;-81
2024/03/15 14:02:00;;;;;;;26.73;5.05;;;15.20;74.90;;;;;;6241520;28;20429;-84
2024/03/15 14:05:03;;;;;;;24.77;5.22;;;15.80;83.70;;;;;;6242959;28;20061;-88
2024/03/15 14:08:05;;;;;;;25.08;4.50;;;15.70;51.60;;;;;;6203100;28;20062;-84
2024/03/15 14:11:08;;;;;;;23.60;4.55;;;15.50;63.60;;;;;;6203688;28;20385;-85
2024/03/15 14:14:10;;;;;;;23.67;4.55;;;15.30;55.90;;;;;;6202174;28;20072;-83
2024/03/15 14:17:14;;;;;;;27.73;4.93;;;15.00;86.10;;;;;;6229029;28;20042;-87
2024/03/15 14:20:16;;;;;;;26.10;5.18;;;14.50;96.50;;;;;;6219858;28;20060;-82
2024/03/15 14:23:19;;;;;;;20.58;3.63;;;14.10;99.90;;;;;;6238181;28;20049;-82
2024/03/15 14:26:23;;;;;;;25.65;5.03;;;13.70;99.90;;;;;;6225286;28;20055;-83
2024/03/15 14:29:25;;;;;;;23.90;4.22;;;13.40;99.90;;;;;;6220114;28;20576;-82
2024/03/15 14:32:27;;;;;;;23.55;4.00;;;13.20;99.90;;;;;;6221569;28;20521;-85
2024/03/15 14:35:29;;;;;;;21.38;3.97;;;13.10;99.90;;;;;;6222103;28;20154;-84
2024/03/15 14:38:31;;;;;;;22.38;3.97;;;13.20;99.90;;;;;;6202774;28;20501;-83
2024/03/15 14:41:33;;;;;;;27.95;4.28;;;13.40;99.90;;;;;;6245337;28;20075;-88
2024/03/15 14:44:36;;;;;;;22.25;4.15;;;13.70;99.90;;;;;;6197936;28;20493;-85
2024/03/15 14:47:38;;;;;;;23.48;4.38;;;14.00;99.90;;;;;;6207962;28;20049;-82
2024/03/15 14:50:39;;;;;;;25.10;4.53;;;14.20;99.90;;;;;;6212871;28;20488;-85
2024/03/15 14:53:42;;;;;;;25.92;4.32;;;14.60;99.90;;;;;;6214832;28;20501;-86
2024/03/15 14:56:44;;;;;;;25.67;4.20;;;14.60;99.90;;;;;;6254786;28;20045;-86
2024/03/15 14:59:45;;;;;;;24.80;4.38;;;14.70;99.90;;;;;;6217317;28;20061;-85
2024/03/15 15:02:48;;;;;;;22.85;3.83;;;14.90;99.90;;;;;;6227674;28;20524;-85
2024/03/15 15:05:50;;;;;;;17.15;3.20;;;14.90;97.50;;;;;;6220454;28;20074;-83
2024/03/15 15:08:51;;;;;;;24.05;4.05;;;14.70;99.90;;;;;;6242875;28;20061;-83
2024/03/15 15:11:53;;;;;;;17.92;3.38;;;14.60;99.90;;;;;;6245057;28;20072;-84
2024/03/15 15:14:55;;;;;;;17.13;3.47;;;14.50;94.00;;;;;;6226692;28;20065;-89
2024/03/15 15:17:58;;;;;;;14.63;3.50;;;14.50;92.90;;;;;;6231090;28;20054;-91
2024/03/15 15:21:00;;;;;;;17.58;3.22;;;14.60;94.90;;;;;;6247842;28;20496;-86
2024/03/15 15:24:02;;;;;;;15.40;3.53;;;14.60;93.60;;;;;;6236190;28;20057;-87
2024/03/15 15:27:04;;;;;;;20.02;3.92;;;14.70;96.60;;;;;;6222746;28;20068;-84
2024/03/15 15:30:05;;;;;;;21.08;3.53;;;14.60;95.40;;;;;;6210259;28;20171;-81
2024/03/15 15:33:07;;;;;;;24.50;3.72;;;14.50;94.60;;;;;;6250704;28;20144;-80
2024/03/15 15:36:09;;;;;;;24.67;4.40;;;14.40;97.10;;;;;;6223783;28;20054;-80
2024/03/15 15:39:11;;;;;;;22.33;4.10;;;14.40;95.20;;;;;;6245619;28;20049;-81
2024/03/15 15:42:13;;;;;;;21.75;4.20;;;14.50;92.20;;;;;;6238805;28;20053;-80
2024/03/15 15:45:26;;;;;;;17.33;3.90;;;14.30;73.00;;;;;;6227438;28;20053;-82
2024/03/15 15:48:29;;;;;;;20.40;3.78;;;14.30;91.10;;;;;;6221491;28;20053;-82